createdAt,value
2022-10-31T00:00:05.323Z,54.84
2022-10-31T00:01:11.356Z,54.88
2022-10-31T00:02:12.850Z,55.95
2022-10-31T00:03:14.373Z,58.48
2022-10-31T00:04:15.803Z,59.03
2022-10-31T00:05:17.356Z,56.89
2022-10-31T00:06:18.950Z,59.55
2022-10-31T00:07:20.432Z,56.60
2022-10-31T00:08:21.840Z,56.17
2022-10-31T00:09:23.314Z,55.96
2022-10-31T00:10:24.760Z,56.05
2022-10-31T00:11:26.609Z,56.44
2022-10-31T00:12:28.094Z,55.98
2022-10-31T00:13:32.029Z,55.83
2022-10-31T00:14:33.474Z,58.12
2022-10-31T00:15:35.142Z,57.11
2022-10-31T00:16:36.625Z,56.30
2022-10-31T00:17:38.048Z,55.96
2022-10-31T00:18:39.494Z,55.79
2022-10-31T00:19:40.932Z,55.23
2022-10-31T00:20:42.487Z,55.99
2022-10-31T00:21:43.920Z,56.62
2022-10-31T00:22:45.353Z,56.83
2022-10-31T00:23:46.970Z,56.87
2022-10-31T00:24:48.458Z,57.42
2022-10-31T00:25:49.931Z,55.93
2022-10-31T00:26:51.354Z,56.01
2022-10-31T00:27:52.812Z,56.41
2022-10-31T00:28:55.830Z,55.86
2022-10-31T00:29:57.267Z,55.73
2022-10-31T00:31:02.462Z,55.98
2022-10-31T00:32:04.187Z,55.31
2022-10-31T00:33:05.634Z,55.19
2022-10-31T00:34:07.380Z,54.84
2022-10-31T00:35:09.099Z,55.08
2022-10-31T00:36:12.725Z,55.20
2022-10-31T00:37:14.145Z,56.01
2022-10-31T00:38:15.538Z,56.14
2022-10-31T00:39:16.968Z,56.26
2022-10-31T00:40:18.387Z,56.93
2022-10-31T00:41:19.882Z,57.46
2022-10-31T00:42:21.343Z,57.48
2022-10-31T00:43:22.976Z,57.95
2022-10-31T00:44:25.748Z,58.79
2022-10-31T00:45:27.210Z,58.08
2022-10-31T00:46:28.799Z,58.03
2022-10-31T00:47:30.217Z,58.19
2022-10-31T00:48:31.719Z,57.78
2022-10-31T00:49:33.160Z,57.48
2022-10-31T00:50:34.621Z,57.54
2022-10-31T00:51:36.031Z,57.27
2022-10-31T00:52:37.482Z,57.04
2022-10-31T00:53:38.934Z,57.07
2022-10-31T00:54:40.375Z,57.02
2022-10-31T00:55:41.816Z,56.96
2022-10-31T00:56:43.256Z,57.03
2022-10-31T00:57:47.162Z,57.66
2022-10-31T00:58:48.586Z,57.72
2022-10-31T00:59:51.386Z,57.37
2022-10-31T01:00:53.912Z,57.66
2022-10-31T01:01:55.508Z,57.32
2022-10-31T01:02:57.305Z,57.37
2022-10-31T01:03:58.999Z,56.73
2022-10-31T01:05:00.447Z,56.63
2022-10-31T01:06:05.299Z,56.41
2022-10-31T01:07:06.733Z,55.88
2022-10-31T01:08:08.136Z,55.82
2022-10-31T01:09:09.609Z,56.00
2022-10-31T01:10:12.055Z,55.87
2022-10-31T01:11:16.059Z,55.95
2022-10-31T01:12:17.527Z,55.86
2022-10-31T01:13:19.004Z,56.37
2022-10-31T01:14:20.534Z,56.78
2022-10-31T01:15:23.951Z,57.19
2022-10-31T01:16:27.322Z,57.61
2022-10-31T01:17:28.750Z,58.26
2022-10-31T01:18:31.070Z,58.48
2022-10-31T01:19:32.521Z,58.42
2022-10-31T01:20:33.951Z,58.54
2022-10-31T01:21:35.399Z,58.54
2022-10-31T01:22:36.868Z,58.16
2022-10-31T01:23:38.655Z,58.27
2022-10-31T01:24:40.086Z,58.66
2022-10-31T01:25:41.492Z,58.75
2022-10-31T01:26:42.939Z,58.83
2022-10-31T01:27:44.389Z,58.55
2022-10-31T01:28:48.102Z,58.16
2022-10-31T01:29:49.623Z,58.49
2022-10-31T01:30:52.381Z,58.50
2022-10-31T01:31:53.804Z,59.61
2022-10-31T01:32:55.267Z,59.55
2022-10-31T01:33:57.374Z,60.52
2022-10-31T01:34:58.862Z,61.47
2022-10-31T01:36:00.427Z,61.61
2022-10-31T01:37:01.903Z,61.55
2022-10-31T01:38:03.335Z,61.60
2022-10-31T01:39:07.559Z,60.24
2022-10-31T01:40:10.390Z,60.34
2022-10-31T01:41:13.756Z,61.01
2022-10-31T01:42:19.464Z,61.11
2022-10-31T01:44:52.709Z,62.62
2022-10-31T01:45:55.518Z,63.41
2022-10-31T01:47:00.282Z,64.09
2022-10-31T01:48:02.013Z,63.66
2022-10-31T01:49:06.415Z,64.14
2022-10-31T01:50:14.681Z,63.26
2022-10-31T01:51:18.849Z,62.59
2022-10-31T01:52:25.811Z,61.79
2022-10-31T01:53:27.367Z,60.55
2022-10-31T01:54:33.706Z,60.09
2022-10-31T01:55:40.145Z,59.47
2022-10-31T01:56:47.370Z,58.29
2022-10-31T01:57:52.754Z,57.63
2022-10-31T01:58:55.994Z,57.47
2022-10-31T02:00:01.609Z,57.03
2022-10-31T02:01:07.938Z,57.12
2022-10-31T02:02:10.409Z,57.29
2022-10-31T02:03:12.389Z,57.26
2022-10-31T02:04:14.871Z,57.25
2022-10-31T02:05:20.682Z,58.03
2022-10-31T02:06:31.928Z,58.33
2022-10-31T02:07:39.296Z,58.59
2022-10-31T02:08:41.945Z,58.44
2022-10-31T02:09:45.845Z,58.25
2022-10-31T02:10:47.290Z,58.19
2022-10-31T02:11:48.789Z,57.91
2022-10-31T02:12:52.683Z,57.60
2022-10-31T02:13:54.341Z,57.74
2022-10-31T02:14:55.791Z,57.96
2022-10-31T02:15:59.370Z,58.33
2022-10-31T02:17:02.168Z,58.88
2022-10-31T02:18:04.673Z,58.69
2022-10-31T02:19:09.968Z,58.46
2022-10-31T02:20:16.689Z,58.12
2022-10-31T02:21:24.331Z,58.46
2022-10-31T02:22:32.023Z,59.27
2022-10-31T02:23:58.975Z,59.91
2022-10-31T02:25:19.077Z,59.98
2022-10-31T02:27:01.890Z,61.02
2022-10-31T02:28:41.668Z,60.46
2022-10-31T02:30:13.002Z,60.14
2022-10-31T02:31:30.068Z,60.25
2022-10-31T02:32:43.902Z,60.29
2022-10-31T02:33:51.732Z,60.04
2022-10-31T02:34:59.293Z,59.98
2022-10-31T02:36:10.383Z,60.02
2022-10-31T02:37:14.992Z,60.23
2022-10-31T02:38:28.998Z,60.14
2022-10-31T02:39:38.526Z,60.12
2022-10-31T02:40:48.942Z,60.16
2022-10-31T02:41:58.691Z,60.43
2022-10-31T02:43:07.314Z,61.55
2022-10-31T02:44:11.562Z,61.05
2022-10-31T02:45:21.295Z,60.58
2022-10-31T02:46:33.238Z,60.13
2022-10-31T02:47:37.374Z,60.30
2022-10-31T02:48:40.804Z,59.87
2022-10-31T02:49:49.829Z,59.80
2022-10-31T02:50:56.106Z,59.51
2022-10-31T02:51:57.672Z,59.84
2022-10-31T02:52:59.215Z,59.84
2022-10-31T02:54:00.673Z,60.15
2022-10-31T02:55:11.711Z,60.14
2022-10-31T02:56:15.246Z,60.00
2022-10-31T02:57:20.473Z,60.13
2022-10-31T02:58:25.294Z,60.13
2022-10-31T02:59:28.007Z,60.64
2022-10-31T03:00:31.272Z,60.98
2022-10-31T03:02:00.707Z,61.44
2022-10-31T03:03:13.996Z,62.13
2022-10-31T03:04:39.938Z,62.69
2022-10-31T03:05:50.680Z,62.51
2022-10-31T03:06:59.274Z,62.25
2022-10-31T03:08:07.648Z,62.12
2022-10-31T03:09:20.179Z,62.23
2022-10-31T03:10:32.578Z,63.14
2022-10-31T03:11:42.927Z,63.35
2022-10-31T03:12:55.019Z,63.59
2022-10-31T03:14:06.555Z,63.89
2022-10-31T03:15:15.230Z,64.40
2022-10-31T03:16:20.051Z,64.50
2022-10-31T03:17:32.784Z,64.60
2022-10-31T03:18:38.803Z,64.79
2022-10-31T03:19:43.572Z,64.74
2022-10-31T03:20:49.042Z,64.13
2022-10-31T03:21:54.282Z,64.47
2022-10-31T03:22:57.520Z,64.73
2022-10-31T03:24:01.557Z,64.67
2022-10-31T03:25:05.330Z,64.62
2022-10-31T03:26:09.114Z,64.84
2022-10-31T03:27:15.695Z,65.00
2022-10-31T03:28:24.537Z,64.99
2022-10-31T03:29:28.779Z,65.07
2022-10-31T03:30:32.225Z,65.29
2022-10-31T03:31:38.052Z,65.30
2022-10-31T03:32:45.791Z,65.71
2022-10-31T03:33:48.888Z,65.42
2022-10-31T03:34:51.918Z,64.78
2022-10-31T03:35:56.731Z,64.15
2022-10-31T03:37:02.478Z,63.90
2022-10-31T03:38:07.916Z,63.84
2022-10-31T03:39:13.660Z,63.94
2022-10-31T03:40:17.588Z,63.84
2022-10-31T03:41:22.624Z,64.15
2022-10-31T03:42:26.065Z,64.31
2022-10-31T03:43:33.040Z,64.75
2022-10-31T03:44:35.507Z,64.28
2022-10-31T03:45:42.308Z,64.43
2022-10-31T03:46:44.598Z,64.14
2022-10-31T03:47:47.471Z,64.19
2022-10-31T03:48:48.984Z,64.23
2022-10-31T03:49:50.858Z,64.99
2022-10-31T03:51:00.732Z,65.40
2022-10-31T03:52:12.666Z,65.83
2022-10-31T03:53:20.309Z,65.84
2022-10-31T03:54:26.276Z,65.37
2022-10-31T03:55:30.935Z,64.44
2022-10-31T03:56:37.431Z,64.43
2022-10-31T03:57:44.264Z,64.14
2022-10-31T03:58:54.311Z,64.12
2022-10-31T04:00:02.215Z,64.30
2022-10-31T04:01:06.721Z,64.67
2022-10-31T04:02:14.250Z,64.63
2022-10-31T04:03:23.301Z,64.38
2022-10-31T04:04:26.421Z,64.96
2022-10-31T04:05:29.414Z,65.15
2022-10-31T04:06:34.975Z,65.43
2022-10-31T04:07:42.147Z,64.87
2022-10-31T04:08:48.891Z,64.94
2022-10-31T04:09:52.895Z,64.99
2022-10-31T04:10:56.627Z,65.04
2022-10-31T04:12:00.040Z,65.30
2022-10-31T04:13:06.483Z,65.75
2022-10-31T04:14:08.546Z,66.21
2022-10-31T04:15:10.943Z,66.48
2022-10-31T04:16:17.089Z,66.68
2022-10-31T04:17:23.340Z,66.83
2022-10-31T04:18:26.659Z,67.17
2022-10-31T04:19:28.204Z,67.29
2022-10-31T04:20:33.990Z,67.77
2022-10-31T04:21:35.481Z,67.77
2022-10-31T04:22:36.908Z,67.75
2022-10-31T04:23:38.474Z,68.05
2022-10-31T04:24:41.329Z,68.55
2022-10-31T04:25:42.746Z,68.78
2022-10-31T04:26:44.136Z,68.97
2022-10-31T04:27:45.550Z,69.61
2022-10-31T04:28:47.034Z,70.03
2022-10-31T04:29:50.809Z,70.58
2022-10-31T04:30:52.801Z,70.99
2022-10-31T04:31:54.258Z,70.93
2022-10-31T04:32:55.680Z,71.31
2022-10-31T04:33:58.481Z,71.63
2022-10-31T04:34:59.876Z,71.98
2022-10-31T04:36:01.333Z,71.86
2022-10-31T04:37:02.795Z,71.80
2022-10-31T04:38:04.199Z,71.82
2022-10-31T04:39:05.650Z,72.14
2022-10-31T04:40:08.143Z,72.31
2022-10-31T04:41:09.662Z,72.33
2022-10-31T04:42:11.079Z,72.12
2022-10-31T04:43:12.663Z,72.16
2022-10-31T04:44:14.185Z,72.41
2022-10-31T04:45:18.514Z,72.74
2022-10-31T04:46:22.790Z,72.86
2022-10-31T04:47:24.222Z,72.66
2022-10-31T04:48:25.926Z,72.80
2022-10-31T04:49:28.688Z,72.68
2022-10-31T04:50:30.112Z,72.49
2022-10-31T04:51:31.579Z,72.75
2022-10-31T04:52:33.160Z,72.83
2022-10-31T04:53:34.819Z,72.83
2022-10-31T04:54:36.289Z,72.70
2022-10-31T04:55:37.737Z,72.80
2022-10-31T04:56:39.204Z,72.50
2022-10-31T04:57:44.618Z,72.55
2022-10-31T04:58:46.078Z,72.49
2022-10-31T04:59:47.578Z,72.30
2022-10-31T05:00:52.473Z,72.49
2022-10-31T05:01:54.014Z,72.60
2022-10-31T05:02:57.581Z,72.84
2022-10-31T05:03:59.206Z,72.73
2022-10-31T05:05:01.963Z,72.79
2022-10-31T05:06:03.516Z,72.92
2022-10-31T05:07:04.973Z,73.16
2022-10-31T05:08:06.682Z,73.26
2022-10-31T05:09:08.139Z,73.10
2022-10-31T05:10:10.467Z,73.09
2022-10-31T05:11:11.914Z,73.04
2022-10-31T05:12:13.362Z,73.07
2022-10-31T05:13:14.857Z,73.34
2022-10-31T05:14:16.389Z,73.43
2022-10-31T05:15:19.494Z,73.38
2022-10-31T05:16:20.934Z,73.08
2022-10-31T05:17:22.441Z,73.41
2022-10-31T05:18:24.571Z,73.09
2022-10-31T05:19:26.018Z,73.02
2022-10-31T05:20:30.989Z,73.19
2022-10-31T05:21:32.442Z,72.79
2022-10-31T05:22:33.867Z,71.70
2022-10-31T05:23:35.295Z,72.14
2022-10-31T05:24:36.762Z,71.36
2022-10-31T05:25:38.226Z,71.32
2022-10-31T05:26:39.635Z,70.99
2022-10-31T05:27:41.542Z,70.83
2022-10-31T05:28:42.990Z,70.60
2022-10-31T05:29:44.432Z,71.30
2022-10-31T05:30:45.893Z,71.41
2022-10-31T05:31:47.326Z,70.79
2022-10-31T05:32:50.876Z,70.79
2022-10-31T05:33:52.359Z,70.02
2022-10-31T05:34:53.796Z,70.96
2022-10-31T05:35:56.586Z,71.53
2022-10-31T05:36:58.084Z,72.21
2022-10-31T05:38:00.242Z,72.68
2022-10-31T05:39:01.695Z,72.98
2022-10-31T05:40:07.242Z,73.76
2022-10-31T05:41:09.973Z,73.85
2022-10-31T05:42:11.418Z,74.19
2022-10-31T05:43:12.871Z,74.00
2022-10-31T05:44:14.315Z,74.12
2022-10-31T05:45:18.428Z,74.69
2022-10-31T05:46:19.932Z,75.31
2022-10-31T05:47:21.405Z,75.63
2022-10-31T05:48:23.288Z,75.87
2022-10-31T05:49:24.791Z,75.86
2022-10-31T05:50:28.127Z,76.13
2022-10-31T05:51:30.890Z,76.12
2022-10-31T05:52:32.340Z,76.18
2022-10-31T05:53:33.772Z,76.31
2022-10-31T05:54:35.260Z,75.82
2022-10-31T05:55:36.800Z,75.17
2022-10-31T05:56:38.234Z,74.38
2022-10-31T05:57:39.778Z,74.29
2022-10-31T05:58:41.226Z,74.75
2022-10-31T05:59:42.666Z,74.79
2022-10-31T06:00:44.140Z,73.42
2022-10-31T06:01:45.689Z,73.34
2022-10-31T06:02:47.345Z,72.94
2022-10-31T06:03:48.841Z,72.71
2022-10-31T06:04:50.448Z,73.18
2022-10-31T06:05:55.038Z,73.28
2022-10-31T06:06:58.639Z,72.76
2022-10-31T06:08:00.433Z,73.15
2022-10-31T06:09:02.136Z,73.39
2022-10-31T06:10:06.407Z,72.91
2022-10-31T06:11:07.851Z,73.54
2022-10-31T06:12:09.298Z,72.92
2022-10-31T06:13:10.754Z,72.94
2022-10-31T06:14:12.179Z,73.27
2022-10-31T06:15:14.120Z,73.37
2022-10-31T06:16:15.536Z,74.25
2022-10-31T06:17:17.001Z,74.34
2022-10-31T06:18:18.498Z,74.49
2022-10-31T06:19:19.928Z,74.26
2022-10-31T06:20:21.367Z,73.63
2022-10-31T06:21:22.880Z,73.20
2022-10-31T06:22:25.698Z,73.24
2022-10-31T06:23:27.132Z,73.01
2022-10-31T06:24:28.599Z,72.91
2022-10-31T06:25:30.039Z,73.31
2022-10-31T06:26:31.468Z,73.57
2022-10-31T06:27:32.918Z,74.65
2022-10-31T06:28:34.367Z,75.15
2022-10-31T06:29:35.820Z,75.69
2022-10-31T06:30:37.295Z,76.12
2022-10-31T06:31:38.732Z,76.44
2022-10-31T06:32:40.150Z,76.48
2022-10-31T06:33:42.136Z,77.01
2022-10-31T06:34:44.150Z,77.20
2022-10-31T06:35:46.416Z,77.76
2022-10-31T06:36:48.341Z,78.38
2022-10-31T06:37:54.704Z,78.56
2022-10-31T06:38:56.159Z,79.03
2022-10-31T06:39:57.606Z,79.50
2022-10-31T06:41:02.834Z,79.76
2022-10-31T06:42:04.923Z,79.73
2022-10-31T06:43:06.369Z,79.21
2022-10-31T06:44:09.044Z,79.06
2022-10-31T06:45:10.811Z,79.21
2022-10-31T06:46:12.264Z,78.12
2022-10-31T06:47:13.735Z,76.88
2022-10-31T06:48:17.948Z,77.86
2022-10-31T06:49:19.965Z,77.92
2022-10-31T06:50:21.705Z,77.68
2022-10-31T06:51:23.158Z,77.92
2022-10-31T06:52:24.628Z,77.46
2022-10-31T06:53:28.143Z,78.21
2022-10-31T06:54:29.600Z,78.68
2022-10-31T06:55:31.035Z,79.18
2022-10-31T06:56:32.527Z,79.01
2022-10-31T06:57:33.980Z,79.07
2022-10-31T06:58:35.467Z,79.01
2022-10-31T06:59:36.896Z,78.88
2022-10-31T07:00:38.390Z,78.71
2022-10-31T07:01:39.949Z,77.95
2022-10-31T07:02:41.472Z,78.26
2022-10-31T07:03:42.902Z,77.63
2022-10-31T07:04:44.340Z,77.19
2022-10-31T07:05:45.808Z,77.52
2022-10-31T07:06:51.780Z,77.19
2022-10-31T07:07:54.070Z,77.25
2022-10-31T07:08:56.866Z,77.35
2022-10-31T07:09:58.502Z,78.00
2022-10-31T07:11:00.000Z,77.90
2022-10-31T07:12:01.435Z,78.79
2022-10-31T07:13:05.650Z,79.55
2022-10-31T07:14:07.265Z,79.59
2022-10-31T07:15:09.301Z,80.12
2022-10-31T07:16:10.744Z,80.55
2022-10-31T07:17:12.195Z,80.95
2022-10-31T07:18:13.665Z,81.02
2022-10-31T07:19:15.091Z,80.81
2022-10-31T07:20:16.849Z,80.79
2022-10-31T07:21:18.300Z,80.44
2022-10-31T07:22:19.749Z,80.56
2022-10-31T07:23:21.579Z,79.86
2022-10-31T07:24:24.352Z,79.67
2022-10-31T07:25:25.950Z,79.09
2022-10-31T07:26:27.406Z,79.24
2022-10-31T07:27:28.817Z,79.32
2022-10-31T07:28:30.304Z,78.78
2022-10-31T07:29:31.761Z,79.27
2022-10-31T07:30:33.591Z,78.98
2022-10-31T07:31:35.027Z,78.86
2022-10-31T07:32:40.179Z,78.36
2022-10-31T07:33:41.662Z,78.75
2022-10-31T07:34:46.572Z,78.67
2022-10-31T07:35:49.198Z,78.65
2022-10-31T07:36:51.787Z,79.05
2022-10-31T07:37:53.725Z,79.27
2022-10-31T07:38:55.149Z,79.56
2022-10-31T07:39:57.942Z,79.98
2022-10-31T07:40:59.372Z,80.97
2022-10-31T07:42:00.795Z,81.76
2022-10-31T07:43:02.437Z,82.62
2022-10-31T07:44:04.226Z,82.77
2022-10-31T07:45:07.529Z,83.05
2022-10-31T07:46:08.950Z,84.58
2022-10-31T07:47:10.375Z,84.72
2022-10-31T07:48:11.856Z,82.91
2022-10-31T07:49:13.755Z,82.70
2022-10-31T07:50:17.340Z,81.59
2022-10-31T07:51:18.786Z,83.42
2022-10-31T07:52:20.237Z,84.54
2022-10-31T07:53:21.704Z,84.65
2022-10-31T07:54:23.119Z,82.96
2022-10-31T07:55:25.975Z,81.51
2022-10-31T07:56:27.403Z,82.60
2022-10-31T07:57:34.244Z,82.67
2022-10-31T07:58:36.238Z,81.53
2022-10-31T07:59:37.686Z,81.32
2022-10-31T08:00:40.981Z,80.15
2022-10-31T08:01:42.973Z,79.22
2022-10-31T08:02:44.428Z,82.04
2022-10-31T08:03:45.903Z,81.31
2022-10-31T08:04:47.381Z,80.81
2022-10-31T08:05:49.031Z,80.59
2022-10-31T08:06:50.510Z,80.56
2022-10-31T08:07:52.070Z,82.34
2022-10-31T08:08:53.536Z,81.62
2022-10-31T08:09:55.284Z,82.02
2022-10-31T08:10:58.894Z,81.48
2022-10-31T08:12:00.328Z,81.47
2022-10-31T08:13:03.316Z,84.04
2022-10-31T08:14:05.026Z,81.77
2022-10-31T08:15:07.523Z,83.22
2022-10-31T08:16:08.970Z,83.78
2022-10-31T08:17:10.659Z,84.89
2022-10-31T08:18:14.326Z,82.89
2022-10-31T08:19:15.767Z,81.76
2022-10-31T08:20:17.207Z,82.57
2022-10-31T08:21:19.013Z,83.90
2022-10-31T08:22:20.445Z,83.64
2022-10-31T08:23:21.958Z,83.42
2022-10-31T08:24:23.551Z,80.93
2022-10-31T08:25:26.093Z,81.49
2022-10-31T08:26:28.899Z,83.01
2022-10-31T08:27:30.343Z,82.10
2022-10-31T08:28:31.808Z,81.58
2022-10-31T08:29:33.374Z,81.28
2022-10-31T08:30:36.869Z,83.80
2022-10-31T08:31:42.597Z,81.45
2022-10-31T08:32:44.423Z,80.61
2022-10-31T08:33:45.942Z,79.87
2022-10-31T08:34:47.399Z,80.31
2022-10-31T08:35:49.000Z,79.38
2022-10-31T08:36:50.414Z,78.99
2022-10-31T08:37:53.489Z,77.96
2022-10-31T08:39:00.597Z,77.21
2022-10-31T08:40:03.989Z,76.17
2022-10-31T08:41:05.775Z,77.48
2022-10-31T08:42:08.571Z,78.28
2022-10-31T08:43:12.691Z,78.68
2022-10-31T08:44:14.128Z,78.95
2022-10-31T08:45:15.838Z,78.55
2022-10-31T08:46:17.547Z,77.81
2022-10-31T08:47:19.133Z,79.62
2022-10-31T08:48:20.697Z,79.21
2022-10-31T08:49:22.119Z,80.15
2022-10-31T08:50:23.735Z,79.36
2022-10-31T08:51:25.322Z,78.16
2022-10-31T08:52:51.056Z,78.43
2022-10-31T08:53:48.310Z,77.01
2022-10-31T08:54:49.738Z,77.56
2022-10-31T08:55:51.449Z,77.12
2022-10-31T08:56:55.120Z,76.50
2022-10-31T08:57:59.181Z,77.05
2022-10-31T08:59:01.116Z,78.22
2022-10-31T09:00:03.285Z,78.29
2022-10-31T09:01:04.943Z,76.39
2022-10-31T09:02:08.278Z,80.31
2022-10-31T09:03:12.166Z,77.62
2022-10-31T09:04:13.722Z,79.18
2022-10-31T09:05:15.281Z,77.32
2022-10-31T09:06:16.827Z,78.47
2022-10-31T09:07:20.986Z,78.37
2022-10-31T09:08:23.708Z,78.25
2022-10-31T09:09:25.128Z,77.67
2022-10-31T09:10:27.932Z,79.46
2022-10-31T09:11:30.835Z,77.69
2022-10-31T09:12:32.284Z,78.93
2022-10-31T09:13:40.246Z,78.99
2022-10-31T09:14:42.682Z,75.97
2022-10-31T09:15:46.721Z,78.78
2022-10-31T09:16:48.203Z,76.82
2022-10-31T09:17:50.207Z,77.43
2022-10-31T09:18:51.651Z,80.26
2022-10-31T09:19:53.083Z,77.56
2022-10-31T09:20:54.594Z,78.27
2022-10-31T09:21:56.069Z,77.53
2022-10-31T09:22:57.846Z,77.75
2022-10-31T09:23:59.303Z,77.60
2022-10-31T09:25:00.730Z,76.45
2022-10-31T09:26:02.818Z,77.31
2022-10-31T09:27:04.374Z,77.50
2022-10-31T09:28:07.486Z,77.77
2022-10-31T09:29:10.338Z,79.64
2022-10-31T09:30:12.566Z,80.24
2022-10-31T09:31:14.040Z,80.77
2022-10-31T09:32:15.504Z,77.17
2022-10-31T09:33:17.481Z,78.51
2022-10-31T09:34:18.963Z,77.92
2022-10-31T09:35:23.146Z,77.66
2022-10-31T09:36:28.181Z,80.91
2022-10-31T09:37:29.664Z,81.23
2022-10-31T09:38:31.116Z,80.09
2022-10-31T09:39:32.568Z,78.29
2022-10-31T09:40:36.871Z,80.49
2022-10-31T09:42:05.017Z,79.36
2022-10-31T09:43:17.057Z,81.66
2022-10-31T09:44:29.017Z,80.88
2022-10-31T09:45:35.659Z,80.80
2022-10-31T09:46:48.627Z,79.73
2022-10-31T09:48:03.927Z,79.07
2022-10-31T09:49:25.517Z,77.00
2022-10-31T09:50:31.968Z,77.29
2022-10-31T09:51:38.368Z,77.86
2022-10-31T09:52:46.281Z,79.00
2022-10-31T09:53:53.146Z,79.75
2022-10-31T09:54:59.888Z,81.19
2022-10-31T09:56:03.104Z,81.51
2022-10-31T09:57:05.740Z,81.42
2022-10-31T09:58:14.707Z,81.15
2022-10-31T09:59:25.241Z,81.27
2022-10-31T10:00:26.910Z,80.47
2022-10-31T10:01:38.832Z,81.01
2022-10-31T10:02:45.880Z,79.28
2022-10-31T10:03:52.789Z,78.41
2022-10-31T10:04:58.499Z,81.00
2022-10-31T10:06:07.367Z,78.60
2022-10-31T10:07:17.994Z,79.79
2022-10-31T10:08:21.984Z,80.46
2022-10-31T10:09:26.956Z,78.89
2022-10-31T10:10:37.152Z,80.62
2022-10-31T10:13:11.059Z,80.06
2022-10-31T10:14:29.536Z,80.05
2022-10-31T10:15:43.833Z,80.28
2022-10-31T10:16:58.410Z,79.75
2022-10-31T10:18:08.156Z,83.40
2022-10-31T10:19:22.583Z,82.47
2022-10-31T10:20:32.772Z,81.84
2022-10-31T10:21:43.397Z,79.86
2022-10-31T10:22:51.132Z,80.14
2022-10-31T10:24:04.936Z,80.71
2022-10-31T10:25:16.735Z,79.37
2022-10-31T10:26:19.834Z,79.83
2022-10-31T10:27:28.722Z,77.81
2022-10-31T10:28:34.004Z,78.01
2022-10-31T10:29:41.925Z,77.26
2022-10-31T10:30:47.926Z,76.74
2022-10-31T10:31:52.564Z,76.37
2022-10-31T10:32:57.944Z,76.51
2022-10-31T10:34:08.082Z,77.28
2022-10-31T10:35:23.374Z,78.96
2022-10-31T10:36:31.767Z,78.42
2022-10-31T10:37:36.879Z,79.45
2022-10-31T10:38:50.589Z,81.01
2022-10-31T10:39:56.318Z,80.29
2022-10-31T10:41:01.692Z,81.19
2022-10-31T10:42:11.578Z,80.56
2022-10-31T10:43:22.663Z,77.90
2022-10-31T10:44:24.133Z,77.02
2022-10-31T10:45:27.245Z,80.43
2022-10-31T10:46:42.554Z,80.63
2022-10-31T10:47:48.895Z,78.88
2022-10-31T10:48:56.669Z,80.10
2022-10-31T10:49:59.076Z,82.92
2022-10-31T10:51:02.365Z,79.47
2022-10-31T10:52:40.737Z,80.76
2022-10-31T10:53:44.434Z,80.25
2022-10-31T10:55:00.862Z,79.97
2022-10-31T10:56:12.365Z,79.71
2022-10-31T10:57:30.859Z,77.70
2022-10-31T10:58:32.273Z,78.31
2022-10-31T10:59:34.937Z,80.20
2022-10-31T11:00:41.614Z,79.46
2022-10-31T11:01:43.254Z,79.31
2022-10-31T11:02:46.518Z,78.09
2022-10-31T11:03:50.417Z,77.79
2022-10-31T11:04:53.667Z,77.25
2022-10-31T11:05:57.659Z,75.98
2022-10-31T11:07:04.823Z,75.81
2022-10-31T11:08:07.433Z,73.97
2022-10-31T11:09:11.657Z,73.34
2022-10-31T11:10:14.331Z,73.91
2022-10-31T11:11:24.592Z,72.75
2022-10-31T11:12:30.021Z,73.82
2022-10-31T11:13:32.784Z,72.22
2022-10-31T11:14:43.196Z,72.71
2022-10-31T11:15:56.337Z,72.84
2022-10-31T11:17:10.075Z,71.04
2022-10-31T11:18:21.428Z,69.77
2022-10-31T11:19:25.458Z,69.61
2022-10-31T11:20:31.043Z,69.44
2022-10-31T11:21:32.511Z,69.73
2022-10-31T11:22:33.955Z,69.78
2022-10-31T11:23:35.659Z,69.71
2022-10-31T11:24:42.299Z,69.62
2022-10-31T11:25:50.289Z,68.17
2022-10-31T11:26:52.758Z,68.89
2022-10-31T11:28:00.735Z,68.64
2022-10-31T11:29:02.599Z,68.47
2022-10-31T11:30:08.133Z,69.59
2022-10-31T11:31:13.999Z,68.61
2022-10-31T11:32:21.059Z,66.87
2022-10-31T11:33:27.790Z,67.16
2022-10-31T11:34:32.040Z,67.24
2022-10-31T11:35:33.609Z,67.59
2022-10-31T11:36:38.041Z,68.63
2022-10-31T11:37:43.880Z,67.76
2022-10-31T11:38:45.668Z,68.33
2022-10-31T11:39:51.375Z,67.76
2022-10-31T11:40:55.337Z,67.11
2022-10-31T11:42:07.688Z,68.07
2022-10-31T11:43:17.728Z,68.51
2022-10-31T11:44:21.713Z,68.02
2022-10-31T11:45:30.706Z,67.76
2022-10-31T11:46:36.236Z,67.30
2022-10-31T11:47:37.695Z,67.07
2022-10-31T11:48:39.187Z,67.30
2022-10-31T11:49:42.944Z,67.53
2022-10-31T11:50:51.085Z,67.65
2022-10-31T11:51:56.234Z,68.13
2022-10-31T11:52:57.805Z,68.36
2022-10-31T11:54:03.054Z,68.90
2022-10-31T11:55:16.988Z,68.30
2022-10-31T11:56:18.631Z,68.50
2022-10-31T11:57:29.414Z,67.99
2022-10-31T11:58:30.910Z,68.82
2022-10-31T11:59:32.813Z,67.32
2022-10-31T12:00:38.100Z,66.77
2022-10-31T12:01:48.515Z,66.58
2022-10-31T12:02:50.534Z,67.43
2022-10-31T12:04:00.998Z,66.79
2022-10-31T12:05:08.715Z,66.94
2022-10-31T12:06:16.925Z,66.31
2022-10-31T12:07:18.417Z,66.22
2022-10-31T12:08:20.450Z,67.54
2022-10-31T12:09:24.259Z,67.63
2022-10-31T12:10:31.810Z,67.00
2022-10-31T12:11:48.372Z,67.66
2022-10-31T12:13:04.728Z,67.42
2022-10-31T12:14:21.400Z,66.99
2022-10-31T12:15:31.190Z,67.00
2022-10-31T12:16:40.475Z,67.18
2022-10-31T12:17:48.333Z,67.79
2022-10-31T12:18:59.946Z,68.33
2022-10-31T12:20:12.135Z,68.41
2022-10-31T12:21:24.963Z,67.97
2022-10-31T12:22:37.226Z,68.31
2022-10-31T12:23:50.042Z,68.21
2022-10-31T12:25:05.220Z,68.75
2022-10-31T12:26:15.649Z,68.86
2022-10-31T12:27:29.442Z,69.03
2022-10-31T12:28:47.228Z,68.68
2022-10-31T12:30:09.536Z,68.48
2022-10-31T12:31:25.524Z,69.21
2022-10-31T12:32:35.812Z,69.01
2022-10-31T12:33:54.155Z,69.62
2022-10-31T12:35:21.127Z,69.56
2022-10-31T12:36:37.104Z,70.05
2022-10-31T12:37:54.159Z,70.36
2022-10-31T12:39:26.245Z,70.50
2022-10-31T12:40:46.981Z,70.04
2022-10-31T12:41:53.369Z,70.02
2022-10-31T12:43:06.761Z,69.63
2022-10-31T12:44:40.252Z,69.82
2022-10-31T12:45:53.559Z,70.27
2022-10-31T12:47:11.533Z,69.81
2022-10-31T12:48:25.659Z,70.25
2022-10-31T12:49:39.840Z,70.66
2022-10-31T12:50:53.927Z,70.76
2022-10-31T12:52:08.298Z,70.56
2022-10-31T12:53:23.747Z,70.25
2022-10-31T12:54:48.802Z,70.29
2022-10-31T12:56:03.188Z,70.40
2022-10-31T12:57:15.016Z,70.56
2022-10-31T12:58:23.013Z,70.69
2022-10-31T12:59:30.549Z,70.42
2022-10-31T13:00:34.594Z,70.32
2022-10-31T13:01:41.322Z,70.55
2022-10-31T13:02:49.039Z,71.14
2022-10-31T13:03:56.156Z,71.37
2022-10-31T13:05:03.214Z,71.37
2022-10-31T13:06:08.936Z,71.92
2022-10-31T13:07:15.292Z,72.44
2022-10-31T13:08:21.086Z,71.94
2022-10-31T13:09:31.911Z,72.21
2022-10-31T13:10:37.989Z,72.13
2022-10-31T13:11:44.979Z,72.53
2022-10-31T13:12:50.715Z,72.80
2022-10-31T13:13:59.265Z,72.54
2022-10-31T13:15:05.608Z,72.91
2022-10-31T13:16:14.281Z,72.51
2022-10-31T13:17:23.349Z,72.80
2022-10-31T13:18:30.994Z,72.43
2022-10-31T13:19:37.527Z,72.74
2022-10-31T13:20:44.555Z,72.45
2022-10-31T13:21:56.908Z,72.61
2022-10-31T13:23:17.923Z,72.33
2022-10-31T13:24:34.353Z,72.21
2022-10-31T13:25:43.301Z,72.30
2022-10-31T13:26:49.810Z,71.93
2022-10-31T13:27:56.100Z,72.31
2022-10-31T13:29:03.561Z,71.83
2022-10-31T13:30:13.791Z,72.48
2022-10-31T13:31:15.300Z,71.86
2022-10-31T13:32:16.926Z,71.96
2022-10-31T13:33:21.598Z,72.09
2022-10-31T13:34:31.418Z,71.37
2022-10-31T13:35:42.691Z,71.62
2022-10-31T13:36:53.122Z,72.15
2022-10-31T13:38:04.195Z,72.28
2022-10-31T13:39:27.098Z,72.46
2022-10-31T13:40:36.229Z,72.44
2022-10-31T13:41:45.450Z,72.70
2022-10-31T13:42:56.236Z,72.82
2022-10-31T13:44:02.277Z,73.01
2022-10-31T13:45:14.533Z,73.23
2022-10-31T13:46:24.263Z,72.97
2022-10-31T13:47:28.193Z,72.98
2022-10-31T13:48:39.285Z,73.06
2022-10-31T13:49:40.829Z,72.89
2022-10-31T13:50:43.663Z,73.28
2022-10-31T13:51:46.476Z,73.45
2022-10-31T13:52:48.116Z,73.86
2022-10-31T13:53:59.040Z,73.71
2022-10-31T13:55:00.498Z,73.02
2022-10-31T13:56:10.892Z,73.15
2022-10-31T13:57:22.650Z,73.09
2022-10-31T13:58:26.850Z,72.60
2022-10-31T13:59:29.772Z,72.80